sensor_id;sensor_type;location;lat;lon;timestamp;P1;durP1;ratioP1;P2;durP2;ratioP2
54795;SDS011;40693;43.884;20.340;2023-08-06T00:02:14;5.82;;;3.17;;
54795;SDS011;40693;43.884;20.340;2023-08-06T00:04:39;4.53;;;3.05;;
54795;SDS011;40693;43.884;20.340;2023-08-06T00:07:05;4.53;;;2.95;;
54795;SDS011;40693;43.884;20.340;2023-08-06T00:09:30;5.13;;;3.00;;
54795;SDS011;40693;43.884;20.340;2023-08-06T00:11:56;6.50;;;3.30;;
54795;SDS011;40693;43.884;20.340;2023-08-06T00:14:22;6.03;;;3.53;;
54795;SDS011;40693;43.884;20.340;2023-08-06T00:16:47;7.15;;;3.15;;
54795;SDS011;40693;43.884;20.340;2023-08-06T00:19:13;5.57;;;3.22;;
54795;SDS011;40693;43.884;20.340;2023-08-06T00:21:39;3.70;;;2.90;;
54795;SDS011;40693;43.884;20.340;2023-08-06T00:24:05;8.65;;;3.17;;
54795;SDS011;40693;43.884;20.340;2023-08-06T00:26:30;4.07;;;2.95;;
54795;SDS011;40693;43.884;20.340;2023-08-06T00:28:56;4.35;;;2.42;;
54795;SDS011;40693;43.884;20.340;2023-08-06T00:31:21;7.82;;;3.38;;
54795;SDS011;40693;43.884;20.340;2023-08-06T00:33:47;8.05;;;2.60;;
54795;SDS011;40693;43.884;20.340;2023-08-06T00:36:13;4.85;;;3.03;;
54795;SDS011;40693;43.884;20.340;2023-08-06T00:38:38;6.57;;;2.95;;
54795;SDS011;40693;43.884;20.340;2023-08-06T00:41:04;4.70;;;3.08;;
54795;SDS011;40693;43.884;20.340;2023-08-06T00:43:30;9.30;;;3.55;;
54795;SDS011;40693;43.884;20.340;2023-08-06T00:45:55;5.60;;;2.35;;
54795;SDS011;40693;43.884;20.340;2023-08-06T00:48:21;5.32;;;2.78;;
54795;SDS011;40693;43.884;20.340;2023-08-06T00:50:47;6.75;;;3.55;;
54795;SDS011;40693;43.884;20.340;2023-08-06T00:53:13;4.07;;;2.58;;
54795;SDS011;40693;43.884;20.340;2023-08-06T00:55:39;5.40;;;2.25;;
54795;SDS011;40693;43.884;20.340;2023-08-06T00:58:05;6.47;;;2.58;;
54795;SDS011;40693;43.884;20.340;2023-08-06T01:00:31;5.25;;;2.55;;
54795;SDS011;40693;43.884;20.340;2023-08-06T01:02:56;5.13;;;2.30;;
54795;SDS011;40693;43.884;20.340;2023-08-06T01:05:22;3.53;;;2.33;;
54795;SDS011;40693;43.884;20.340;2023-08-06T01:07:56;3.33;;;2.35;;
54795;SDS011;40693;43.884;20.340;2023-08-06T01:16:11;3.42;;;2.30;;
54795;SDS011;40693;43.884;20.340;2023-08-06T01:18:42;3.25;;;2.10;;
54795;SDS011;40693;43.884;20.340;2023-08-06T01:21:11;4.95;;;2.65;;
54795;SDS011;40693;43.884;20.340;2023-08-06T01:23:43;6.20;;;2.83;;
54795;SDS011;40693;43.884;20.340;2023-08-06T01:26:17;6.05;;;3.55;;
54795;SDS011;40693;43.884;20.340;2023-08-06T01:31:40;4.75;;;2.72;;
54795;SDS011;40693;43.884;20.340;2023-08-06T01:34:13;3.60;;;2.20;;
54795;SDS011;40693;43.884;20.340;2023-08-06T01:36:43;11.32;;;3.65;;
54795;SDS011;40693;43.884;20.340;2023-08-06T01:39:09;5.18;;;2.72;;
54795;SDS011;40693;43.884;20.340;2023-08-06T01:41:35;3.42;;;2.25;;
54795;SDS011;40693;43.884;20.340;2023-08-06T01:44:00;4.68;;;2.22;;
54795;SDS011;40693;43.884;20.340;2023-08-06T01:46:26;3.67;;;2.42;;
54795;SDS011;40693;43.884;20.340;2023-08-06T01:48:52;5.00;;;2.78;;
54795;SDS011;40693;43.884;20.340;2023-08-06T01:51:18;7.40;;;2.42;;
54795;SDS011;40693;43.884;20.340;2023-08-06T01:53:43;3.92;;;2.13;;
54795;SDS011;40693;43.884;20.340;2023-08-06T01:56:09;4.45;;;2.67;;
54795;SDS011;40693;43.884;20.340;2023-08-06T01:58:35;7.60;;;3.20;;
54795;SDS011;40693;43.884;20.340;2023-08-06T02:01:01;4.60;;;2.42;;
54795;SDS011;40693;43.884;20.340;2023-08-06T02:03:27;6.15;;;3.15;;
54795;SDS011;40693;43.884;20.340;2023-08-06T02:05:53;7.57;;;3.60;;
54795;SDS011;40693;43.884;20.340;2023-08-06T02:08:18;10.65;;;3.40;;
54795;SDS011;40693;43.884;20.340;2023-08-06T02:10:44;9.23;;;3.60;;
54795;SDS011;40693;43.884;20.340;2023-08-06T02:13:10;7.35;;;3.47;;
54795;SDS011;40693;43.884;20.340;2023-08-06T02:15:41;8.18;;;4.07;;
54795;SDS011;40693;43.884;20.340;2023-08-06T02:18:08;11.90;;;4.18;;
54795;SDS011;40693;43.884;20.340;2023-08-06T02:20:34;5.93;;;3.70;;
54795;SDS011;40693;43.884;20.340;2023-08-06T02:22:59;5.10;;;3.40;;
54795;SDS011;40693;43.884;20.340;2023-08-06T02:25:25;10.80;;;3.08;;
54795;SDS011;40693;43.884;20.340;2023-08-06T02:27:51;5.88;;;3.28;;
54795;SDS011;40693;43.884;20.340;2023-08-06T02:30:16;9.07;;;3.15;;
54795;SDS011;40693;43.884;20.340;2023-08-06T02:32:42;4.32;;;2.65;;
54795;SDS011;40693;43.884;20.340;2023-08-06T02:35:08;4.47;;;2.58;;
54795;SDS011;40693;43.884;20.340;2023-08-06T02:37:34;4.70;;;2.45;;
54795;SDS011;40693;43.884;20.340;2023-08-06T02:39:59;10.43;;;3.65;;
54795;SDS011;40693;43.884;20.340;2023-08-06T02:42:25;4.18;;;2.80;;
54795;SDS011;40693;43.884;20.340;2023-08-06T02:44:52;6.20;;;3.67;;
54795;SDS011;40693;43.884;20.340;2023-08-06T02:47:20;5.00;;;3.50;;
54795;SDS011;40693;43.884;20.340;2023-08-06T02:49:45;5.63;;;3.00;;
54795;SDS011;40693;43.884;20.340;2023-08-06T02:52:11;4.68;;;2.45;;
54795;SDS011;40693;43.884;20.340;2023-08-06T02:54:37;5.28;;;3.10;;
54795;SDS011;40693;43.884;20.340;2023-08-06T02:57:03;3.05;;;2.55;;
54795;SDS011;40693;43.884;20.340;2023-08-06T02:59:30;4.07;;;2.15;;
54795;SDS011;40693;43.884;20.340;2023-08-06T03:01:55;3.53;;;2.65;;
54795;SDS011;40693;43.884;20.340;2023-08-06T03:04:21;3.63;;;2.30;;
54795;SDS011;40693;43.884;20.340;2023-08-06T03:06:48;4.95;;;2.75;;
54795;SDS011;40693;43.884;20.340;2023-08-06T03:09:15;3.42;;;2.10;;
54795;SDS011;40693;43.884;20.340;2023-08-06T03:11:41;4.72;;;2.50;;
54795;SDS011;40693;43.884;20.340;2023-08-06T03:14:07;4.30;;;2.92;;
54795;SDS011;40693;43.884;20.340;2023-08-06T03:16:32;3.80;;;2.30;;
54795;SDS011;40693;43.884;20.340;2023-08-06T03:18:58;8.30;;;2.55;;
54795;SDS011;40693;43.884;20.340;2023-08-06T03:21:24;4.72;;;2.45;;
54795;SDS011;40693;43.884;20.340;2023-08-06T03:23:50;3.80;;;2.65;;
54795;SDS011;40693;43.884;20.340;2023-08-06T03:26:15;3.45;;;2.40;;
54795;SDS011;40693;43.884;20.340;2023-08-06T03:28:41;5.47;;;2.58;;
54795;SDS011;40693;43.884;20.340;2023-08-06T03:31:07;4.22;;;2.08;;
54795;SDS011;40693;43.884;20.340;2023-08-06T03:33:32;5.65;;;3.42;;
54795;SDS011;40693;43.884;20.340;2023-08-06T03:35:58;3.42;;;2.47;;
54795;SDS011;40693;43.884;20.340;2023-08-06T03:38:24;3.95;;;2.65;;
54795;SDS011;40693;43.884;20.340;2023-08-06T03:40:50;5.07;;;3.13;;
54795;SDS011;40693;43.884;20.340;2023-08-06T03:43:15;3.30;;;2.67;;
54795;SDS011;40693;43.884;20.340;2023-08-06T03:45:42;6.57;;;3.38;;
54795;SDS011;40693;43.884;20.340;2023-08-06T03:48:08;8.15;;;3.20;;
54795;SDS011;40693;43.884;20.340;2023-08-06T03:50:34;4.60;;;3.15;;
54795;SDS011;40693;43.884;20.340;2023-08-06T03:53:00;5.03;;;3.28;;
54795;SDS011;40693;43.884;20.340;2023-08-06T03:55:26;5.30;;;2.97;;
54795;SDS011;40693;43.884;20.340;2023-08-06T03:57:52;4.28;;;2.92;;
54795;SDS011;40693;43.884;20.340;2023-08-06T04:00:18;3.95;;;3.08;;
54795;SDS011;40693;43.884;20.340;2023-08-06T04:02:43;6.68;;;3.45;;
54795;SDS011;40693;43.884;20.340;2023-08-06T04:05:09;4.75;;;3.00;;
54795;SDS011;40693;43.884;20.340;2023-08-06T04:07:35;7.78;;;3.25;;
54795;SDS011;40693;43.884;20.340;2023-08-06T04:10:02;7.80;;;3.30;;
54795;SDS011;40693;43.884;20.340;2023-08-06T04:12:29;5.50;;;3.38;;
54795;SDS011;40693;43.884;20.340;2023-08-06T04:14:57;7.47;;;3.22;;
54795;SDS011;40693;43.884;20.340;2023-08-06T04:17:23;3.97;;;2.92;;
54795;SDS011;40693;43.884;20.340;2023-08-06T04:19:53;4.82;;;3.15;;
54795;SDS011;40693;43.884;20.340;2023-08-06T04:22:20;5.78;;;3.50;;
54795;SDS011;40693;43.884;20.340;2023-08-06T04:24:47;7.10;;;3.90;;
54795;SDS011;40693;43.884;20.340;2023-08-06T04:27:13;6.38;;;3.47;;
54795;SDS011;40693;43.884;20.340;2023-08-06T04:29:40;10.05;;;3.63;;
54795;SDS011;40693;43.884;20.340;2023-08-06T04:32:06;5.40;;;3.65;;
54795;SDS011;40693;43.884;20.340;2023-08-06T04:34:34;4.82;;;3.72;;
54795;SDS011;40693;43.884;20.340;2023-08-06T04:37:00;5.88;;;3.78;;
54795;SDS011;40693;43.884;20.340;2023-08-06T04:39:27;6.13;;;4.00;;
54795;SDS011;40693;43.884;20.340;2023-08-06T04:41:52;5.40;;;3.65;;
54795;SDS011;40693;43.884;20.340;2023-08-06T04:44:18;6.28;;;3.78;;
54795;SDS011;40693;43.884;20.340;2023-08-06T04:46:44;4.53;;;3.33;;
54795;SDS011;40693;43.884;20.340;2023-08-06T04:49:10;5.28;;;3.80;;
54795;SDS011;40693;43.884;20.340;2023-08-06T04:51:35;10.00;;;4.20;;
54795;SDS011;40693;43.884;20.340;2023-08-06T04:54:01;6.05;;;4.15;;
54795;SDS011;40693;43.884;20.340;2023-08-06T04:56:27;8.30;;;4.15;;
54795;SDS011;40693;43.884;20.340;2023-08-06T04:58:52;6.75;;;3.65;;
54795;SDS011;40693;43.884;20.340;2023-08-06T05:01:18;7.60;;;4.40;;
54795;SDS011;40693;43.884;20.340;2023-08-06T05:03:44;5.25;;;3.90;;
54795;SDS011;40693;43.884;20.340;2023-08-06T05:06:10;6.25;;;4.05;;
54795;SDS011;40693;43.884;20.340;2023-08-06T05:08:35;6.07;;;3.70;;
54795;SDS011;40693;43.884;20.340;2023-08-06T05:11:01;11.75;;;4.32;;
54795;SDS011;40693;43.884;20.340;2023-08-06T05:13:27;6.18;;;3.60;;
54795;SDS011;40693;43.884;20.340;2023-08-06T05:15:53;7.75;;;4.47;;
54795;SDS011;40693;43.884;20.340;2023-08-06T05:18:19;6.80;;;3.85;;
54795;SDS011;40693;43.884;20.340;2023-08-06T05:20:45;6.88;;;3.75;;
54795;SDS011;40693;43.884;20.340;2023-08-06T05:23:11;5.78;;;4.22;;
54795;SDS011;40693;43.884;20.340;2023-08-06T05:25:40;5.85;;;3.97;;
54795;SDS011;40693;43.884;20.340;2023-08-06T05:28:05;8.45;;;4.50;;
54795;SDS011;40693;43.884;20.340;2023-08-06T05:30:31;5.55;;;4.80;;
54795;SDS011;40693;43.884;20.340;2023-08-06T05:32:57;8.50;;;5.55;;
54795;SDS011;40693;43.884;20.340;2023-08-06T05:35:23;6.28;;;4.70;;
54795;SDS011;40693;43.884;20.340;2023-08-06T05:37:51;5.97;;;4.55;;
54795;SDS011;40693;43.884;20.340;2023-08-06T05:40:18;5.03;;;3.42;;
54795;SDS011;40693;43.884;20.340;2023-08-06T05:42:44;5.38;;;3.63;;
54795;SDS011;40693;43.884;20.340;2023-08-06T05:45:10;4.07;;;3.40;;
54795;SDS011;40693;43.884;20.340;2023-08-06T05:47:36;5.82;;;3.20;;
54795;SDS011;40693;43.884;20.340;2023-08-06T05:50:01;5.97;;;4.32;;
54795;SDS011;40693;43.884;20.340;2023-08-06T05:52:27;6.18;;;4.05;;
54795;SDS011;40693;43.884;20.340;2023-08-06T05:54:53;7.97;;;4.63;;
54795;SDS011;40693;43.884;20.340;2023-08-06T05:57:20;6.95;;;4.60;;
54795;SDS011;40693;43.884;20.340;2023-08-06T05:59:46;6.80;;;4.50;;
54795;SDS011;40693;43.884;20.340;2023-08-06T06:02:12;6.90;;;4.60;;
54795;SDS011;40693;43.884;20.340;2023-08-06T06:04:38;4.75;;;3.78;;
54795;SDS011;40693;43.884;20.340;2023-08-06T06:07:04;6.63;;;4.65;;
54795;SDS011;40693;43.884;20.340;2023-08-06T06:09:29;6.97;;;4.05;;
54795;SDS011;40693;43.884;20.340;2023-08-06T06:11:55;5.32;;;3.83;;
54795;SDS011;40693;43.884;20.340;2023-08-06T06:14:21;9.07;;;5.10;;
54795;SDS011;40693;43.884;20.340;2023-08-06T06:16:46;6.57;;;4.60;;
54795;SDS011;40693;43.884;20.340;2023-08-06T06:19:12;10.73;;;4.78;;
54795;SDS011;40693;43.884;20.340;2023-08-06T06:21:38;5.68;;;4.85;;
54795;SDS011;40693;43.884;20.340;2023-08-06T06:24:05;7.20;;;4.68;;
54795;SDS011;40693;43.884;20.340;2023-08-06T06:26:31;6.70;;;5.10;;
54795;SDS011;40693;43.884;20.340;2023-08-06T06:28:57;7.22;;;4.38;;
54795;SDS011;40693;43.884;20.340;2023-08-06T06:31:23;6.03;;;4.75;;
54795;SDS011;40693;43.884;20.340;2023-08-06T06:33:49;6.90;;;4.72;;
54795;SDS011;40693;43.884;20.340;2023-08-06T06:36:14;6.45;;;4.90;;
54795;SDS011;40693;43.884;20.340;2023-08-06T06:38:40;7.65;;;5.25;;
54795;SDS011;40693;43.884;20.340;2023-08-06T06:41:06;7.72;;;5.00;;
54795;SDS011;40693;43.884;20.340;2023-08-06T06:43:31;6.47;;;5.20;;
54795;SDS011;40693;43.884;20.340;2023-08-06T06:45:58;8.35;;;5.60;;
54795;SDS011;40693;43.884;20.340;2023-08-06T06:48:25;7.15;;;4.47;;
54795;SDS011;40693;43.884;20.340;2023-08-06T06:50:52;6.65;;;4.93;;
54795;SDS011;40693;43.884;20.340;2023-08-06T06:53:17;7.45;;;5.40;;
54795;SDS011;40693;43.884;20.340;2023-08-06T06:55:43;6.70;;;4.57;;
54795;SDS011;40693;43.884;20.340;2023-08-06T06:58:09;5.97;;;5.00;;
54795;SDS011;40693;43.884;20.340;2023-08-06T07:00:35;5.93;;;4.30;;
54795;SDS011;40693;43.884;20.340;2023-08-06T07:03:02;8.20;;;5.15;;
54795;SDS011;40693;43.884;20.340;2023-08-06T07:05:28;5.78;;;4.70;;
54795;SDS011;40693;43.884;20.340;2023-08-06T07:07:53;7.57;;;5.30;;
54795;SDS011;40693;43.884;20.340;2023-08-06T07:10:19;6.20;;;4.50;;
54795;SDS011;40693;43.884;20.340;2023-08-06T07:12:45;5.68;;;4.65;;
54795;SDS011;40693;43.884;20.340;2023-08-06T07:15:10;8.23;;;4.43;;
54795;SDS011;40693;43.884;20.340;2023-08-06T07:17:36;7.32;;;4.68;;
54795;SDS011;40693;43.884;20.340;2023-08-06T07:20:02;5.68;;;5.00;;
54795;SDS011;40693;43.884;20.340;2023-08-06T07:22:29;6.13;;;4.97;;
54795;SDS011;40693;43.884;20.340;2023-08-06T07:24:54;6.90;;;5.35;;
54795;SDS011;40693;43.884;20.340;2023-08-06T07:27:20;6.65;;;5.20;;
54795;SDS011;40693;43.884;20.340;2023-08-06T07:29:46;6.63;;;4.45;;
54795;SDS011;40693;43.884;20.340;2023-08-06T07:32:13;7.57;;;5.20;;
54795;SDS011;40693;43.884;20.340;2023-08-06T07:34:38;6.65;;;5.45;;
54795;SDS011;40693;43.884;20.340;2023-08-06T07:37:04;4.95;;;4.28;;
54795;SDS011;40693;43.884;20.340;2023-08-06T07:39:30;6.32;;;4.60;;
54795;SDS011;40693;43.884;20.340;2023-08-06T07:41:56;6.53;;;5.25;;
54795;SDS011;40693;43.884;20.340;2023-08-06T07:44:22;6.22;;;5.05;;
54795;SDS011;40693;43.884;20.340;2023-08-06T07:46:48;31.50;;;9.00;;
54795;SDS011;40693;43.884;20.340;2023-08-06T07:49:14;13.90;;;6.97;;
54795;SDS011;40693;43.884;20.340;2023-08-06T07:51:40;9.90;;;6.13;;
54795;SDS011;40693;43.884;20.340;2023-08-06T07:54:06;7.45;;;4.72;;
54795;SDS011;40693;43.884;20.340;2023-08-06T07:56:32;6.53;;;4.75;;
54795;SDS011;40693;43.884;20.340;2023-08-06T07:58:57;5.75;;;4.88;;
54795;SDS011;40693;43.884;20.340;2023-08-06T08:01:23;8.10;;;5.20;;
54795;SDS011;40693;43.884;20.340;2023-08-06T08:03:49;5.60;;;4.68;;
54795;SDS011;40693;43.884;20.340;2023-08-06T08:06:15;8.13;;;4.70;;
54795;SDS011;40693;43.884;20.340;2023-08-06T08:08:40;7.90;;;5.30;;
54795;SDS011;40693;43.884;20.340;2023-08-06T08:11:06;5.47;;;4.90;;
54795;SDS011;40693;43.884;20.340;2023-08-06T08:13:32;6.07;;;5.40;;
54795;SDS011;40693;43.884;20.340;2023-08-06T08:15:59;7.63;;;5.30;;
54795;SDS011;40693;43.884;20.340;2023-08-06T08:18:25;11.13;;;6.13;;
54795;SDS011;40693;43.884;20.340;2023-08-06T08:20:52;6.72;;;5.68;;
54795;SDS011;40693;43.884;20.340;2023-08-06T08:23:17;8.43;;;6.03;;
54795;SDS011;40693;43.884;20.340;2023-08-06T08:25:43;9.02;;;7.10;;
54795;SDS011;40693;43.884;20.340;2023-08-06T08:28:09;10.18;;;8.52;;
54795;SDS011;40693;43.884;20.340;2023-08-06T08:30:34;9.98;;;8.75;;
54795;SDS011;40693;43.884;20.340;2023-08-06T08:33:00;12.20;;;9.90;;
54795;SDS011;40693;43.884;20.340;2023-08-06T08:35:26;8.95;;;8.05;;
54795;SDS011;40693;43.884;20.340;2023-08-06T08:37:51;9.85;;;8.57;;
54795;SDS011;40693;43.884;20.340;2023-08-06T08:40:17;9.32;;;8.32;;
54795;SDS011;40693;43.884;20.340;2023-08-06T08:42:43;10.90;;;9.05;;
54795;SDS011;40693;43.884;20.340;2023-08-06T08:45:13;11.00;;;9.90;;
54795;SDS011;40693;43.884;20.340;2023-08-06T08:47:40;9.63;;;8.60;;
54795;SDS011;40693;43.884;20.340;2023-08-06T08:50:10;8.50;;;7.65;;
54795;SDS011;40693;43.884;20.340;2023-08-06T08:52:36;9.75;;;8.10;;
54795;SDS011;40693;43.884;20.340;2023-08-06T08:55:04;10.57;;;8.45;;
54795;SDS011;40693;43.884;20.340;2023-08-06T08:57:31;10.30;;;9.30;;
54795;SDS011;40693;43.884;20.340;2023-08-06T08:59:57;9.93;;;8.32;;
54795;SDS011;40693;43.884;20.340;2023-08-06T09:02:22;11.48;;;9.07;;
54795;SDS011;40693;43.884;20.340;2023-08-06T09:04:52;9.15;;;8.25;;
54795;SDS011;40693;43.884;20.340;2023-08-06T09:07:20;12.27;;;8.63;;
54795;SDS011;40693;43.884;20.340;2023-08-06T09:09:48;11.25;;;8.60;;
54795;SDS011;40693;43.884;20.340;2023-08-06T09:12:16;14.32;;;9.95;;
54795;SDS011;40693;43.884;20.340;2023-08-06T09:14:42;14.82;;;8.95;;
54795;SDS011;40693;43.884;20.340;2023-08-06T09:17:08;10.60;;;9.00;;
54795;SDS011;40693;43.884;20.340;2023-08-06T09:19:37;13.45;;;9.90;;
54795;SDS011;40693;43.884;20.340;2023-08-06T09:22:09;13.00;;;9.70;;
54795;SDS011;40693;43.884;20.340;2023-08-06T09:24:39;9.45;;;6.63;;
54795;SDS011;40693;43.884;20.340;2023-08-06T09:27:08;7.13;;;6.43;;
54795;SDS011;40693;43.884;20.340;2023-08-06T09:29:39;7.90;;;6.63;;
54795;SDS011;40693;43.884;20.340;2023-08-06T09:32:10;12.85;;;7.07;;
54795;SDS011;40693;43.884;20.340;2023-08-06T09:34:41;8.68;;;6.43;;
54795;SDS011;40693;43.884;20.340;2023-08-06T09:37:08;9.77;;;7.47;;
54795;SDS011;40693;43.884;20.340;2023-08-06T09:39:35;9.95;;;7.63;;
54795;SDS011;40693;43.884;20.340;2023-08-06T09:42:03;8.57;;;7.68;;
54795;SDS011;40693;43.884;20.340;2023-08-06T09:44:30;9.82;;;7.72;;
54795;SDS011;40693;43.884;20.340;2023-08-06T09:46:58;13.20;;;8.57;;
54795;SDS011;40693;43.884;20.340;2023-08-06T09:49:26;11.43;;;7.82;;
54795;SDS011;40693;43.884;20.340;2023-08-06T09:51:53;9.60;;;8.20;;
54795;SDS011;40693;43.884;20.340;2023-08-06T09:54:23;9.27;;;8.02;;
54795;SDS011;40693;43.884;20.340;2023-08-06T09:56:51;9.73;;;8.07;;
54795;SDS011;40693;43.884;20.340;2023-08-06T09:59:18;9.98;;;8.05;;
54795;SDS011;40693;43.884;20.340;2023-08-06T10:01:44;9.98;;;7.90;;
54795;SDS011;40693;43.884;20.340;2023-08-06T10:04:11;9.05;;;8.15;;
54795;SDS011;40693;43.884;20.340;2023-08-06T10:06:42;10.88;;;7.97;;
54795;SDS011;40693;43.884;20.340;2023-08-06T10:09:11;9.50;;;7.47;;
54795;SDS011;40693;43.884;20.340;2023-08-06T10:11:37;8.98;;;8.00;;
54795;SDS011;40693;43.884;20.340;2023-08-06T10:14:06;8.65;;;7.65;;
54795;SDS011;40693;43.884;20.340;2023-08-06T10:16:34;9.63;;;8.15;;
54795;SDS011;40693;43.884;20.340;2023-08-06T10:19:01;11.82;;;8.07;;
54795;SDS011;40693;43.884;20.340;2023-08-06T10:21:30;15.20;;;10.60;;
54795;SDS011;40693;43.884;20.340;2023-08-06T10:23:56;9.90;;;7.80;;
54795;SDS011;40693;43.884;20.340;2023-08-06T10:26:29;9.63;;;7.93;;
54795;SDS011;40693;43.884;20.340;2023-08-06T10:28:55;8.70;;;7.25;;
54795;SDS011;40693;43.884;20.340;2023-08-06T10:32:07;10.73;;;8.10;;
54795;SDS011;40693;43.884;20.340;2023-08-06T10:34:20;8.25;;;7.35;;
54795;SDS011;40693;43.884;20.340;2023-08-06T10:36:46;10.25;;;8.23;;
54795;SDS011;40693;43.884;20.340;2023-08-06T10:39:15;8.10;;;7.30;;
54795;SDS011;40693;43.884;20.340;2023-08-06T10:41:44;8.68;;;7.43;;
54795;SDS011;40693;43.884;20.340;2023-08-06T10:44:10;9.95;;;8.15;;
54795;SDS011;40693;43.884;20.340;2023-08-06T10:46:36;9.48;;;8.50;;
54795;SDS011;40693;43.884;20.340;2023-08-06T10:49:03;12.68;;;9.02;;
54795;SDS011;40693;43.884;20.340;2023-08-06T10:51:32;8.32;;;7.47;;
54795;SDS011;40693;43.884;20.340;2023-08-06T10:53:58;10.43;;;8.13;;
54795;SDS011;40693;43.884;20.340;2023-08-06T10:56:25;8.18;;;7.38;;
54795;SDS011;40693;43.884;20.340;2023-08-06T10:58:55;8.00;;;7.25;;
54795;SDS011;40693;43.884;20.340;2023-08-06T11:01:22;12.02;;;7.43;;
54795;SDS011;40693;43.884;20.340;2023-08-06T11:03:50;7.20;;;6.45;;
54795;SDS011;40693;43.884;20.340;2023-08-06T11:06:19;8.15;;;6.57;;
54795;SDS011;40693;43.884;20.340;2023-08-06T11:08:49;9.98;;;6.43;;
54795;SDS011;40693;43.884;20.340;2023-08-06T11:11:16;8.23;;;6.43;;
54795;SDS011;40693;43.884;20.340;2023-08-06T11:13:43;8.23;;;6.93;;
54795;SDS011;40693;43.884;20.340;2023-08-06T11:16:13;11.45;;;6.88;;
54795;SDS011;40693;43.884;20.340;2023-08-06T11:18:43;7.07;;;6.35;;
54795;SDS011;40693;43.884;20.340;2023-08-06T11:21:09;8.45;;;7.18;;
54795;SDS011;40693;43.884;20.340;2023-08-06T11:23:36;8.18;;;6.38;;
54795;SDS011;40693;43.884;20.340;2023-08-06T11:26:02;8.60;;;7.50;;
54795;SDS011;40693;43.884;20.340;2023-08-06T11:28:28;10.95;;;7.55;;
54795;SDS011;40693;43.884;20.340;2023-08-06T11:30:54;8.55;;;7.10;;
54795;SDS011;40693;43.884;20.340;2023-08-06T11:35:49;7.72;;;6.85;;
54795;SDS011;40693;43.884;20.340;2023-08-06T11:38:14;8.18;;;6.70;;
54795;SDS011;40693;43.884;20.340;2023-08-06T11:40:43;8.20;;;6.35;;
54795;SDS011;40693;43.884;20.340;2023-08-06T11:43:10;6.82;;;6.13;;
54795;SDS011;40693;43.884;20.340;2023-08-06T11:45:37;7.00;;;6.25;;
54795;SDS011;40693;43.884;20.340;2023-08-06T11:48:02;10.55;;;3.10;;
54795;SDS011;40693;43.884;20.340;2023-08-06T11:50:29;3.38;;;1.73;;
54795;SDS011;40693;43.884;20.340;2023-08-06T11:52:59;1.92;;;1.27;;
54795;SDS011;40693;43.884;20.340;2023-08-06T11:55:25;4.47;;;2.05;;
54795;SDS011;40693;43.884;20.340;2023-08-06T11:57:53;2.45;;;1.58;;
54795;SDS011;40693;43.884;20.340;2023-08-06T12:00:20;4.28;;;2.05;;
54795;SDS011;40693;43.884;20.340;2023-08-06T12:02:48;2.67;;;1.52;;
54795;SDS011;40693;43.884;20.340;2023-08-06T12:05:19;3.22;;;2.28;;
54795;SDS011;40693;43.884;20.340;2023-08-06T12:07:50;5.00;;;2.03;;
54795;SDS011;40693;43.884;20.340;2023-08-06T12:10:23;7.18;;;3.88;;
54795;SDS011;40693;43.884;20.340;2023-08-06T12:12:50;5.45;;;2.83;;
54795;SDS011;40693;43.884;20.340;2023-08-06T12:15:16;9.77;;;4.40;;
54795;SDS011;40693;43.884;20.340;2023-08-06T12:17:43;11.60;;;5.70;;
54795;SDS011;40693;43.884;20.340;2023-08-06T12:20:09;8.88;;;5.28;;
54795;SDS011;40693;43.884;20.340;2023-08-06T12:22:35;3.75;;;2.78;;
54795;SDS011;40693;43.884;20.340;2023-08-06T12:25:03;5.13;;;2.80;;
54795;SDS011;40693;43.884;20.340;2023-08-06T12:27:43;4.05;;;3.08;;
54795;SDS011;40693;43.884;20.340;2023-08-06T12:30:10;4.90;;;2.88;;
54795;SDS011;40693;43.884;20.340;2023-08-06T12:32:36;4.97;;;3.65;;
54795;SDS011;40693;43.884;20.340;2023-08-06T12:35:03;4.32;;;2.38;;
54795;SDS011;40693;43.884;20.340;2023-08-06T12:37:29;7.30;;;5.18;;
54795;SDS011;40693;43.884;20.340;2023-08-06T12:39:55;23.60;;;18.77;;
54795;SDS011;40693;43.884;20.340;2023-08-06T12:42:21;5.68;;;4.10;;
54795;SDS011;40693;43.884;20.340;2023-08-06T12:44:50;6.97;;;3.22;;
54795;SDS011;40693;43.884;20.340;2023-08-06T12:47:16;9.25;;;4.30;;
54795;SDS011;40693;43.884;20.340;2023-08-06T12:49:42;4.93;;;3.47;;
54795;SDS011;40693;43.884;20.340;2023-08-06T12:52:08;4.35;;;3.25;;
54795;SDS011;40693;43.884;20.340;2023-08-06T12:54:35;7.03;;;4.68;;
54795;SDS011;40693;43.884;20.340;2023-08-06T12:57:03;8.27;;;4.53;;
54795;SDS011;40693;43.884;20.340;2023-08-06T12:59:30;5.70;;;3.40;;
54795;SDS011;40693;43.884;20.340;2023-08-06T13:01:56;4.15;;;3.00;;
54795;SDS011;40693;43.884;20.340;2023-08-06T13:04:22;5.88;;;3.58;;
54795;SDS011;40693;43.884;20.340;2023-08-06T13:06:48;4.28;;;3.20;;
54795;SDS011;40693;43.884;20.340;2023-08-06T13:09:14;6.97;;;3.88;;
54795;SDS011;40693;43.884;20.340;2023-08-06T13:11:40;4.25;;;3.85;;
54795;SDS011;40693;43.884;20.340;2023-08-06T13:14:10;5.65;;;3.78;;
54795;SDS011;40693;43.884;20.340;2023-08-06T13:16:37;5.72;;;4.93;;
54795;SDS011;40693;43.884;20.340;2023-08-06T13:19:05;5.65;;;4.50;;
54795;SDS011;40693;43.884;20.340;2023-08-06T13:21:35;6.88;;;5.28;;
54795;SDS011;40693;43.884;20.340;2023-08-06T13:24:21;6.75;;;5.70;;
54795;SDS011;40693;43.884;20.340;2023-08-06T13:26:46;6.30;;;5.20;;
54795;SDS011;40693;43.884;20.340;2023-08-06T13:29:12;7.25;;;5.60;;
54795;SDS011;40693;43.884;20.340;2023-08-06T13:31:38;6.07;;;4.82;;
54795;SDS011;40693;43.884;20.340;2023-08-06T13:34:03;6.15;;;5.07;;
54795;SDS011;40693;43.884;20.340;2023-08-06T13:36:29;6.18;;;5.40;;
54795;SDS011;40693;43.884;20.340;2023-08-06T13:38:56;8.02;;;5.18;;
54795;SDS011;40693;43.884;20.340;2023-08-06T13:41:22;6.68;;;5.85;;
54795;SDS011;40693;43.884;20.340;2023-08-06T13:43:48;9.18;;;4.95;;
54795;SDS011;40693;43.884;20.340;2023-08-06T13:46:14;7.97;;;6.68;;
54795;SDS011;40693;43.884;20.340;2023-08-06T13:48:43;7.90;;;6.70;;
54795;SDS011;40693;43.884;20.340;2023-08-06T13:51:09;7.22;;;5.50;;
54795;SDS011;40693;43.884;20.340;2023-08-06T13:53:36;7.57;;;5.85;;
54795;SDS011;40693;43.884;20.340;2023-08-06T13:56:02;6.60;;;5.47;;
54795;SDS011;40693;43.884;20.340;2023-08-06T13:58:29;7.25;;;6.28;;
54795;SDS011;40693;43.884;20.340;2023-08-06T14:00:55;7.50;;;6.13;;
54795;SDS011;40693;43.884;20.340;2023-08-06T14:03:22;8.02;;;5.57;;
54795;SDS011;40693;43.884;20.340;2023-08-06T14:05:48;5.30;;;4.70;;
54795;SDS011;40693;43.884;20.340;2023-08-06T14:08:15;8.05;;;5.78;;
54795;SDS011;40693;43.884;20.340;2023-08-06T14:10:44;7.20;;;6.05;;
54795;SDS011;40693;43.884;20.340;2023-08-06T14:13:10;7.38;;;5.47;;
54795;SDS011;40693;43.884;20.340;2023-08-06T14:15:35;7.47;;;5.80;;
54795;SDS011;40693;43.884;20.340;2023-08-06T14:18:04;7.53;;;6.60;;
54795;SDS011;40693;43.884;20.340;2023-08-06T14:20:30;6.90;;;5.85;;
54795;SDS011;40693;43.884;20.340;2023-08-06T14:22:56;8.30;;;5.60;;
54795;SDS011;40693;43.884;20.340;2023-08-06T14:25:22;6.38;;;5.70;;
54795;SDS011;40693;43.884;20.340;2023-08-06T14:27:47;7.35;;;5.70;;
54795;SDS011;40693;43.884;20.340;2023-08-06T14:30:13;8.38;;;5.85;;
54795;SDS011;40693;43.884;20.340;2023-08-06T14:32:39;7.05;;;6.13;;
54795;SDS011;40693;43.884;20.340;2023-08-06T14:35:04;9.38;;;6.45;;
54795;SDS011;40693;43.884;20.340;2023-08-06T14:37:30;9.00;;;5.95;;
54795;SDS011;40693;43.884;20.340;2023-08-06T14:39:56;7.95;;;6.65;;
54795;SDS011;40693;43.884;20.340;2023-08-06T14:42:22;6.13;;;5.40;;